Time;durP1;ratioP1;P1;durP2;ratioP2;P2;SDS_P1;SDS_P2;PMS_P1;PMS_P2;Temp;Humidity;BMP_temperature;BMP_pressure;BME280_temperature;BME280_humidity;BME280_pressure;Samples;Min_cycle;Max_cycle;Signal;HPM_P1;HPM_P2
2023/02/06 00:01:37;;;;;;;20.80;3.55;;;;;;;6.54;58.89;104217.84;4974216;28;114007;-75
2023/02/06 00:04:04;;;;;;;22.48;3.35;;;;;;;6.52;58.71;104214.28;4980711;28;124411;-75
2023/02/06 00:06:32;;;;;;;27.92;3.35;;;;;;;6.49;58.64;104224.72;4980859;28;124258;-75
2023/02/06 00:09:00;;;;;;;19.90;3.30;;;;;;;6.46;58.45;104214.09;4976329;28;114000;-75
2023/02/06 00:11:27;;;;;;;28.48;3.55;;;;;;;6.41;58.81;104216.63;4976433;28;113814;-75
2023/02/06 00:13:54;;;;;;;26.30;3.25;;;;;;;6.38;58.68;104217.41;4978714;28;124842;-75
2023/02/06 00:16:25;;;;;;;28.13;4.40;;;;;;;6.35;58.82;104227.88;4979765;28;123015;-76
2023/02/06 00:18:53;;;;;;;22.00;3.45;;;;;;;6.34;58.94;104226.09;4976234;28;114730;-75
2023/02/06 00:21:24;;;;;;;27.23;3.88;;;;;;;6.31;58.63;104215.50;4976380;28;114493;-75
2023/02/06 00:23:53;;;;;;;27.60;3.85;;;;;;;6.27;58.74;104216.22;4983299;28;124239;-75
2023/02/06 00:26:21;;;;;;;22.77;3.65;;;;;;;6.22;58.81;104216.13;4977777;28;122978;-75
2023/02/06 00:28:49;;;;;;;21.42;3.20;;;;;;;6.20;58.59;104216.94;4978435;28;114743;-74
2023/02/06 00:31:17;;;;;;;24.25;3.42;;;;;;;6.17;58.85;104211.59;4963651;28;114542;-75
2023/02/06 00:33:45;;;;;;;24.77;3.47;;;;;;;6.15;58.92;104213.28;4956964;28;122753;-75
2023/02/06 00:36:12;;;;;;;20.58;2.90;;;;;;;6.12;58.92;104202.66;4973159;28;123740;-74
2023/02/06 00:38:40;;;;;;;23.30;4.03;;;;;;;6.09;58.94;104210.50;4978039;28;114961;-75
2023/02/06 00:41:07;;;;;;;22.45;3.38;;;;;;;6.07;58.73;104214.81;4977411;28;113160;-75
2023/02/06 00:43:35;;;;;;;27.13;3.92;;;;;;;6.03;58.64;104214.72;4976183;28;123742;-74
2023/02/06 00:46:02;;;;;;;24.55;3.30;;;;;;;6.00;58.94;104214.63;4969254;28;122653;-76
2023/02/06 00:48:36;;;;;;;24.67;3.75;;;;;;;5.97;58.90;104214.56;4960093;28;113562;-76
2023/02/06 00:51:04;;;;;;;28.08;3.08;;;;;;;5.94;59.00;104222.31;4974217;28;114336;-75
2023/02/06 00:53:31;;;;;;;18.08;3.13;;;;;;;5.91;58.84;104219.59;4971505;28;123670;-74
2023/02/06 00:55:59;;;;;;;25.52;3.30;;;;;;;5.88;58.95;104214.25;4976116;28;123480;-74
2023/02/06 00:58:27;;;;;;;21.77;3.50;;;;;;;5.84;58.70;104207.13;4960693;28;113838;-75
2023/02/06 01:00:55;;;;;;;22.38;3.67;;;;;;;5.79;58.71;104203.47;4974923;28;114224;-74
2023/02/06 01:03:22;;;;;;;26.02;3.70;;;;;;;5.75;58.86;104206.84;4959821;28;122812;-75
2023/02/06 01:05:51;;;;;;;25.98;3.58;;;;;;;5.70;58.62;104197.94;4971770;28;122981;-74
2023/02/06 01:08:18;;;;;;;28.40;3.30;;;;;;;5.66;59.01;104203.09;4971542;28;113263;-75
2023/02/06 01:10:47;;;;;;;21.38;3.55;;;;;;;5.63;59.15;104208.28;4974993;28;112948;-75
2023/02/06 01:13:14;;;;;;;21.98;3.60;;;;;;;5.61;59.10;104203.78;4950680;28;123822;-75
2023/02/06 01:15:41;;;;;;;21.65;2.90;;;;;;;5.60;59.10;104216.06;4973095;28;124294;-74
2023/02/06 01:18:09;;;;;;;26.30;3.40;;;;;;;5.59;59.00;104211.63;4974706;28;115091;-74
2023/02/06 01:20:40;;;;;;;27.60;3.85;;;;;;;5.56;59.26;104211.56;4966981;28;115591;-74
2023/02/06 01:23:07;;;;;;;19.55;3.60;;;;;;;5.55;59.25;104207.13;4949500;28;123096;-74
2023/02/06 01:25:35;;;;;;;29.27;3.35;;;;;;;5.52;59.22;104225.47;4954999;28;124774;-74
2023/02/06 01:28:04;;;;;;;23.27;3.65;;;;;;;5.49;58.99;104221.84;4974776;28;114247;-74
2023/02/06 01:30:31;;;;;;;26.10;3.63;;;;;;;5.46;59.17;104223.53;4961766;28;112403;-74
2023/02/06 01:33:01;;;;;;;27.25;4.88;;;;;;;5.45;59.39;104220.84;4977185;28;124773;-74
2023/02/06 01:35:28;;;;;;;19.23;3.60;;;;;;;5.44;59.06;104226.94;4978497;28;123035;-75
2023/02/06 01:37:56;;;;;;;22.88;3.13;;;;;;;5.42;58.97;104212.88;4982267;28;112458;-74
2023/02/06 01:40:24;;;;;;;17.00;3.63;;;;;;;5.42;59.18;104223.38;4979946;28;113744;-74
2023/02/06 01:42:51;;;;;;;19.85;2.80;;;;;;;5.40;59.13;104219.81;4979039;28;123019;-74
2023/02/06 01:45:24;;;;;;;17.23;3.40;;;;;;;5.40;59.07;104214.56;4952779;28;125823;-74
2023/02/06 01:47:58;;;;;;;18.58;2.97;;;;;;;5.38;59.34;104221.50;4981433;28;114373;-75
2023/02/06 01:50:26;;;;;;;23.67;3.13;;;;;;;5.37;59.52;104219.69;4969222;28;112870;-75
2023/02/06 01:52:56;;;;;;;18.67;3.05;;;;;;;5.35;59.28;104221.41;4982488;28;122725;-75
2023/02/06 01:55:23;;;;;;;17.98;2.95;;;;;;;5.34;59.24;104224.88;4977567;28;123105;-75
2023/02/06 01:57:51;;;;;;;18.92;3.65;;;;;;;5.34;59.37;104230.13;4980857;28;113399;-76
2023/02/06 02:00:20;;;;;;;20.52;3.70;;;;;;;5.34;59.30;104232.78;4975278;28;113306;-75
2023/02/06 02:02:48;;;;;;;19.15;2.60;;;;;;;5.33;59.33;104228.34;4982226;28;124177;-76
2023/02/06 02:05:17;;;;;;;21.40;3.05;;;;;;;5.33;59.29;104228.34;4973243;28;124215;-76
2023/02/06 02:08:13;;;;;;;27.15;3.72;;;;;;;5.32;59.65;104237.09;4978112;28;114108;-76
2023/02/06 02:10:41;;;;;;;25.02;2.97;;;;;;;5.30;59.41;104233.53;4977650;28;115016;-76
2023/02/06 02:13:09;;;;;;;27.75;3.08;;;;;;;5.29;59.47;104236.97;4979384;28;124039;-76
2023/02/06 02:15:45;;;;;;;22.58;3.40;;;;;;;5.30;59.59;104238.78;4980459;28;122944;-76
2023/02/06 02:18:42;;;;;;;26.90;3.08;;;;;;;5.28;59.32;104241.34;4979798;28;113682;-75
2023/02/06 02:21:41;;;;;;;19.80;2.88;;;;;;;5.25;59.49;104231.66;4947828;28;113494;-75
2023/02/06 02:24:35;;;;;;;22.10;3.33;;;;;;;5.21;59.46;104235.00;4976481;28;124861;-75
2023/02/06 02:27:13;;;;;;;26.92;3.35;;;;;;;5.18;59.81;104227.03;4976972;28;123723;-75
2023/02/06 02:30:04;;;;;;;25.77;3.15;;;;;;;5.19;59.63;104230.53;4964140;28;113532;-76
2023/02/06 02:32:37;;;;;;;15.98;2.85;;;;;;;5.19;59.82;104215.66;4984548;28;113339;-75
2023/02/06 02:35:08;;;;;;;21.55;3.20;;;;;;;5.22;59.99;104215.78;4977985;28;124229;-76
2023/02/06 02:37:52;;;;;;;18.35;2.65;;;;;;;5.26;59.82;104215.03;4979816;28;122982;-75
2023/02/06 02:40:48;;;;;;;21.67;3.25;;;;;;;5.28;59.99;104207.19;4977320;28;114383;-76
2023/02/06 02:43:20;;;;;;;25.20;3.22;;;;;;;5.32;60.04;104211.69;4966882;28;113062;-76
2023/02/06 02:46:32;;;;;;;24.45;2.97;;;;;;;5.34;60.12;104209.13;4977314;28;123417;-76
2023/02/06 02:49:04;;;;;;;20.42;2.88;;;;;;;5.37;60.09;104198.69;4963437;28;123392;-76
2023/02/06 02:51:33;;;;;;;30.40;3.58;;;;;;;5.40;59.84;104204.03;4979788;28;113179;-75
2023/02/06 02:54:01;;;;;;;20.13;3.05;;;;;;;5.43;60.00;104204.16;4978396;28;113576;-76
2023/02/06 02:56:29;;;;;;;17.55;3.03;;;;;;;5.46;60.42;104214.72;4983132;28;124012;-75
2023/02/06 02:59:09;;;;;;;23.58;3.40;;;;;;;5.50;60.20;104206.13;4964884;28;123080;-76
2023/02/06 03:01:43;;;;;;;27.52;3.33;;;;;;;5.54;60.16;104200.09;4970473;28;114568;-76
2023/02/06 03:04:19;;;;;;;17.27;2.92;;;;;;;5.57;60.27;104197.53;4965403;28;114413;-75
2023/02/06 03:07:20;;;;;;;34.75;3.65;;;;;;;5.58;60.12;104188.84;4975476;28;124372;-76
2023/02/06 03:10:04;;;;;;;18.38;3.00;;;;;;;5.59;60.31;104180.06;4985254;28;123827;-76
2023/02/06 03:12:49;;;;;;;23.20;3.83;;;;;;;5.60;60.39;104187.13;4978311;28;114339;-75
2023/02/06 03:15:23;;;;;;;19.67;3.70;;;;;;;5.61;60.48;104188.94;4976646;28;113531;-76
2023/02/06 03:18:12;;;;;;;23.33;3.42;;;;;;;5.63;60.18;104202.09;4984725;28;124024;-76
2023/02/06 03:20:43;;;;;;;24.30;3.00;;;;;;;5.63;60.40;104197.75;4959888;28;123082;-76
2023/02/06 03:23:18;;;;;;;24.73;3.53;;;;;;;5.64;60.52;104193.38;4987199;28;114714;-77
2023/02/06 03:25:49;;;;;;;;;;;;;;;5.66;60.21;104197.81;4981176;28;113967;-76
2023/02/06 03:28:22;;;;;;;23.75;3.75;;;;;;;5.69;60.39;104190.88;4986818;28;123482;-76
2023/02/06 03:30:55;;;;;;;23.55;3.70;;;;;;;5.69;60.23;104196.13;4983347;28;122855;-76
2023/02/06 03:33:34;;;;;;;25.85;3.42;;;;;;;5.65;60.33;104190.81;4977757;28;113658;-75
2023/02/06 03:36:04;;;;;;;24.58;3.60;;;;;;;5.68;60.33;104194.38;4986280;28;113806;-75
2023/02/06 03:38:36;;;;;;;20.98;2.97;;;;;;;5.68;60.37;104184.72;4982640;28;123299;-77
2023/02/06 03:41:04;;;;;;;22.42;2.97;;;;;;;5.69;60.39;104180.34;4977992;28;124175;-75
2023/02/06 03:43:31;;;;;;;20.88;3.40;;;;;;;5.72;60.59;104190.97;4960490;28;114670;-75
2023/02/06 03:46:02;;;;;;;20.92;3.13;;;;;;;5.74;60.33;104194.53;4977859;28;114241;-75
2023/02/06 03:48:39;;;;;;;20.67;3.00;;;;;;;5.72;60.32;104190.97;4977525;28;123777;-75
2023/02/06 03:51:13;;;;;;;21.25;3.20;;;;;;;5.72;60.31;104190.97;4975642;28;123163;-75
2023/02/06 03:53:44;;;;;;;18.38;2.80;;;;;;;5.72;60.30;104190.97;4947837;28;114358;-75
2023/02/06 03:56:26;;;;;;;22.95;3.35;;;;;;;5.72;60.80;104185.72;4952703;28;114875;-75
2023/02/06 03:58:53;;;;;;;19.40;2.85;;;;;;;5.73;60.44;104179.63;4981048;28;124004;-75
2023/02/06 04:01:22;;;;;;;16.63;3.25;;;;;;;5.73;60.96;104183.13;4981050;28;123924;-75
2023/02/06 04:03:52;;;;;;;19.98;3.72;;;;;;;5.76;60.97;104182.31;4961152;28;114066;-75
2023/02/06 04:06:19;;;;;;;16.42;3.53;;;;;;;5.80;60.79;104184.19;4953110;28;115034;-75
2023/02/06 04:08:50;;;;;;;25.02;3.40;;;;;;;5.83;60.85;104184.28;4981046;28;124691;-75
2023/02/06 04:11:18;;;;;;;22.23;3.67;;;;;;;5.86;60.76;104184.38;4974140;28;123652;-75
2023/02/06 04:13:46;;;;;;;24.08;4.38;;;;;;;5.88;60.81;104187.94;4968932;28;113807;-77
2023/02/06 04:16:13;;;;;;;19.10;3.00;;;;;;;5.89;60.85;104189.72;4968975;28;114006;-76
2023/02/06 04:18:47;;;;;;;27.08;3.95;;;;;;;5.89;60.31;104188.84;4982108;28;124640;-76
2023/02/06 04:21:15;;;;;;;23.63;4.45;;;;;;;5.87;60.36;104191.41;4981717;28;121677;-76
2023/02/06 04:23:43;;;;;;;21.02;3.55;;;;;;;5.85;60.37;104201.00;4980397;28;114610;-76
2023/02/06 04:26:12;;;;;;;24.42;3.55;;;;;;;5.86;60.92;104210.69;4988855;28;113625;-76
2023/02/06 04:28:39;;;;;;;23.83;3.53;;;;;;;5.84;60.39;104207.13;4989806;28;122927;-76
2023/02/06 04:31:06;;;;;;;26.67;3.30;;;;;;;5.82;60.18;104187.75;4980500;28;123862;-76
2023/02/06 04:33:35;;;;;;;18.25;3.03;;;;;;;5.82;60.37;104187.75;4972754;28;112202;-76
2023/02/06 04:36:02;;;;;;;20.50;3.13;;;;;;;5.81;60.51;104180.72;4980781;28;114341;-76
2023/02/06 04:38:30;;;;;;;18.48;3.75;;;;;;;5.79;60.28;104182.41;4981044;28;123198;-76
2023/02/06 04:41:05;;;;;;;17.15;3.00;;;;;;;5.76;60.15;104174.44;4975656;28;122315;-76
2023/02/06 04:43:33;;;;;;;18.17;3.35;;;;;;;5.75;60.17;104180.56;4983026;28;115370;-76
2023/02/06 04:46:00;;;;;;;14.57;2.75;;;;;;;5.72;60.10;104181.34;4967793;28;114058;-76
2023/02/06 04:48:28;;;;;;;18.65;3.08;;;;;;;5.71;60.37;104178.66;4979471;28;124775;-76
2023/02/06 04:50:55;;;;;;;20.50;3.65;;;;;;;5.68;60.38;104174.22;4979424;28;124182;-76
2023/02/06 04:53:22;;;;;;;16.50;3.08;;;;;;;5.65;60.11;104180.28;4969615;28;114644;-73
2023/02/06 04:55:49;;;;;;;18.75;2.85;;;;;;;5.62;60.29;104185.44;4970880;28;113686;-72
2023/02/06 04:58:16;;;;;;;18.52;3.13;;;;;;;5.58;60.01;104173.06;4956506;28;124895;-73
2023/02/06 05:00:44;;;;;;;18.05;3.15;;;;;;;5.56;60.28;104174.75;4974634;28;123623;-72
2023/02/06 05:03:12;;;;;;;14.10;3.00;;;;;;;5.54;60.07;104186.97;4974618;28;113252;-71
2023/02/06 05:05:39;;;;;;;14.02;3.00;;;;;;;5.50;60.04;104190.34;4975360;28;114018;-71
2023/02/06 05:08:06;;;;;;;15.50;3.13;;;;;;;5.48;60.17;104186.75;4974611;28;123446;-72
2023/02/06 05:10:33;;;;;;;30.88;3.60;;;;;;;5.46;59.98;104177.94;4978066;28;124680;-72
2023/02/06 05:13:00;;;;;;;19.73;3.83;;;;;;;5.43;60.16;104183.13;4981191;28;114878;-72
2023/02/06 05:15:28;;;;;;;24.65;3.50;;;;;;;5.41;60.30;104184.81;4977169;28;114329;-71
2023/02/06 05:17:55;;;;;;;24.45;3.55;;;;;;;5.39;60.04;104186.50;4973201;28;124083;-72
2023/02/06 05:20:22;;;;;;;40.85;4.38;;;;;;;5.37;60.30;104185.53;4979478;28;124084;-71
2023/02/06 05:22:49;;;;;;;27.05;2.45;;;;;;;5.32;60.13;104180.16;4979834;28;114060;-74
2023/02/06 05:25:16;;;;;;;11.25;2.45;;;;;;;5.28;60.06;104182.66;4980752;28;114046;-74
2023/02/06 05:27:44;;;;;;;13.95;2.70;;;;;;;5.20;60.04;104180.66;4980887;28;122979;-75
2023/02/06 05:30:11;;;;;;;8.18;2.42;;;;;;;5.16;60.13;104193.66;4976832;28;124474;-74
2023/02/06 05:32:39;;;;;;;7.75;2.47;;;;;;;5.12;60.00;104187.41;4983018;28;115024;-75
2023/02/06 05:35:08;;;;;;;15.88;2.67;;;;;;;5.09;60.00;104197.84;4980340;28;115212;-74
2023/02/06 05:37:37;;;;;;;8.38;2.50;;;;;;;5.07;59.99;104205.66;4963381;28;122910;-74
2023/02/06 05:40:07;;;;;;;6.68;2.45;;;;;;;5.05;60.44;104206.47;4953159;28;124364;-75
2023/02/06 05:42:34;;;;;;;42.13;3.08;;;;;;;5.05;60.22;104211.72;4979566;28;114008;-74
2023/02/06 05:45:02;;;;;;;24.48;3.30;;;;;;;5.03;60.17;104208.16;4957357;28;113217;-74
2023/02/06 05:47:29;;;;;;;8.20;2.60;;;;;;;5.02;60.49;104201.09;4977658;28;124168;-74
2023/02/06 05:49:56;;;;;;;10.55;2.72;;;;;;;5.01;60.35;104212.44;4974921;28;123855;-74
2023/02/06 05:52:23;;;;;;;12.88;2.63;;;;;;;4.98;60.16;104212.34;4978753;28;114839;-75
2023/02/06 05:54:51;;;;;;;10.63;2.60;;;;;;;4.95;60.06;104214.88;4977395;28;114206;-74
2023/02/06 05:57:19;;;;;;;12.75;3.03;;;;;;;4.93;60.11;104216.56;4975809;28;124042;-74
2023/02/06 05:59:46;;;;;;;11.10;2.92;;;;;;;4.91;60.37;104202.47;4975070;28;123031;-74
2023/02/06 06:02:13;;;;;;;14.07;3.33;;;;;;;4.90;60.63;104211.19;4979567;28;114338;-74
2023/02/06 06:04:40;;;;;;;13.02;2.92;;;;;;;4.90;60.33;104216.44;4974419;28;114798;-74
2023/02/06 06:07:08;;;;;;;7.18;2.70;;;;;;;4.87;60.54;104212.88;4972253;28;125044;-74
2023/02/06 06:09:35;;;;;;;26.85;3.35;;;;;;;4.88;60.72;104209.41;4979040;28;123955;-74
2023/02/06 06:12:03;;;;;;;10.20;3.17;;;;;;;4.88;60.62;104193.66;4975715;28;113754;-74
2023/02/06 06:14:30;;;;;;;15.18;3.30;;;;;;;4.88;60.36;104193.66;4955960;28;114119;-74
2023/02/06 06:17:00;;;;;;;16.02;3.25;;;;;;;4.88;60.42;104193.66;4983107;28;123204;-74
2023/02/06 06:19:27;;;;;;;13.32;3.63;;;;;;;4.90;60.69;104200.69;4979081;28;123750;-75
2023/02/06 06:21:54;;;;;;;16.90;3.55;;;;;;;4.90;60.72;104200.69;4976526;28;114856;-74
2023/02/06 06:24:24;;;;;;;15.68;3.72;;;;;;;4.90;60.80;104213.81;4945787;28;114506;-75
2023/02/06 06:26:52;;;;;;;16.73;3.47;;;;;;;4.91;60.71;104213.00;4975017;28;124355;-74
2023/02/06 06:29:19;;;;;;;21.38;4.35;;;;;;;4.93;60.76;104216.56;4977027;28;124712;-74
2023/02/06 06:31:47;;;;;;;26.58;3.92;;;;;;;4.94;60.68;104207.84;4968603;28;113017;-74
2023/02/06 06:34:14;;;;;;;27.75;4.88;;;;;;;4.97;60.79;104218.44;4977158;28;113975;-75
2023/02/06 06:37:07;;;;;;;25.08;4.20;;;;;;;4.98;60.78;104209.72;4976568;28;124363;-75
2023/02/06 06:39:34;;;;;;;23.25;4.38;;;;;;;5.01;60.82;104207.19;4964929;28;123863;-74
2023/02/06 06:42:03;;;;;;;14.70;3.75;;;;;;;5.02;61.08;104211.59;4980297;28;113655;-75
2023/02/06 06:44:30;;;;;;;27.63;3.78;;;;;;;5.04;60.98;104209.91;4964059;28;114005;-75
2023/02/06 06:46:58;;;;;;;21.02;3.50;;;;;;;5.06;61.14;104202.97;4969665;28;122872;-75
2023/02/06 06:49:25;;;;;;;16.42;3.85;;;;;;;5.10;61.26;104199.59;4974644;28;123007;-76
2023/02/06 06:51:56;;;;;;;17.13;2.78;;;;;;;5.14;61.34;104201.50;4985169;28;114365;-75
2023/02/06 06:54:23;;;;;;;16.55;3.00;;;;;;;5.20;60.97;104196.44;4979940;28;113533;-76
2023/02/06 06:56:51;;;;;;;12.75;2.70;;;;;;;5.24;61.12;104197.44;4984665;28;123664;-76
2023/02/06 06:59:18;;;;;;;15.15;2.58;;;;;;;5.31;61.06;104198.50;4981623;28;123657;-75
2023/02/06 07:01:47;;;;;;;9.52;2.38;;;;;;;5.34;61.14;104193.34;4982326;28;114876;-75
2023/02/06 07:04:14;;;;;;;18.52;3.05;;;;;;;5.38;61.22;104189.97;4979589;28;113993;-74
2023/02/06 07:06:42;;;;;;;15.52;3.13;;;;;;;5.42;61.16;104191.84;4979981;28;123941;-76
2023/02/06 07:09:09;;;;;;;10.32;2.35;;;;;;;5.46;60.95;104188.44;4984536;28;123211;-76
2023/02/06 07:11:37;;;;;;;12.38;2.80;;;;;;;5.50;61.06;104185.09;4962983;28;114435;-76
2023/02/06 07:14:04;;;;;;;9.40;2.63;;;;;;;5.55;61.14;104172.94;4976656;28;113841;-77
2023/02/06 07:16:32;;;;;;;11.65;2.63;;;;;;;5.59;61.17;104164.31;4986407;28;124358;-76
2023/02/06 07:18:59;;;;;;;17.48;2.58;;;;;;;5.64;60.80;104167.97;4983759;28;124279;-76
2023/02/06 07:21:26;;;;;;;12.02;2.65;;;;;;;5.68;60.92;104165.44;4978199;28;114172;-73
2023/02/06 07:23:54;;;;;;;14.73;2.40;;;;;;;5.71;61.19;104168.13;4974607;28;114081;-73
2023/02/06 07:26:21;;;;;;;12.80;2.40;;;;;;;5.74;60.92;104173.50;4971419;28;124042;-73
2023/02/06 07:28:48;;;;;;;9.38;2.40;;;;;;;5.77;60.78;104168.34;4971304;28;123111;-73
2023/02/06 07:31:17;;;;;;;18.08;3.38;;;;;;;5.79;61.10;104166.63;4972847;28;114550;-73
2023/02/06 07:33:45;;;;;;;13.48;2.58;;;;;;;5.83;61.05;104171.13;4970766;28;114770;-73
2023/02/06 07:36:14;;;;;;;16.20;3.00;;;;;;;5.87;60.87;104170.38;4969340;28;124030;-73
2023/02/06 07:38:41;;;;;;;9.25;2.60;;;;;;;5.90;61.11;104170.47;4972843;28;124099;-73
2023/02/06 07:41:09;;;;;;;13.25;2.95;;;;;;;5.92;60.95;104163.50;4956135;28;113887;-73
2023/02/06 07:43:39;;;;;;;14.30;3.00;;;;;;;5.95;60.94;104158.38;4972012;28;114581;-73
2023/02/06 07:46:06;;;;;;;13.60;2.80;;;;;;;5.99;61.20;104149.72;4969131;28;125009;-74
2023/02/06 07:48:34;;;;;;;14.40;2.50;;;;;;;6.02;60.86;104144.50;4971580;28;123524;-74
2023/02/06 07:51:07;;;;;;;16.27;3.22;;;;;;;6.04;61.20;104158.59;4974066;28;114386;-73
2023/02/06 07:53:35;;;;;;;16.02;2.83;;;;;;;6.08;61.13;104153.44;4974884;28;113946;-73
2023/02/06 07:56:09;;;;;;;10.65;3.00;;;;;;;6.10;60.83;104151.72;4944264;28;124387;-73
2023/02/06 07:58:36;;;;;;;17.90;3.10;;;;;;;6.12;61.10;104142.13;4944465;28;123786;-72
2023/02/06 08:01:05;;;;;;;15.98;3.45;;;;;;;6.13;60.86;104141.31;4971270;28;115075;-73
2023/02/06 08:03:34;;;;;;;16.65;3.20;;;;;;;6.14;61.28;104137.81;4977116;28;115276;-73
2023/02/06 08:06:07;;;;;;;15.73;3.22;;;;;;;6.17;61.36;104143.16;4975251;28;124033;-72
2023/02/06 08:08:34;;;;;;;12.18;3.47;;;;;;;6.19;60.95;104130.94;4974183;28;124436;-72
2023/02/06 08:11:13;;;;;;;13.20;2.80;;;;;;;6.21;61.09;104134.50;4958289;28;113665;-72
2023/02/06 08:13:42;;;;;;;11.75;2.88;;;;;;;6.24;61.01;104130.19;4971498;28;114082;-72
2023/02/06 08:16:12;;;;;;;12.75;3.15;;;;;;;6.28;61.20;104132.91;4979491;28;124420;-72
2023/02/06 08:18:40;;;;;;;13.50;2.58;;;;;;;6.31;61.39;104125.09;4976824;28;122915;-72
2023/02/06 08:21:16;;;;;;;14.32;2.60;;;;;;;6.33;61.30;104121.66;4949944;28;114319;-72
2023/02/06 08:23:44;;;;;;;10.85;2.60;;;;;;;6.38;61.40;104112.13;4972137;28;114516;-72
2023/02/06 08:26:15;;;;;;;10.35;2.97;;;;;;;6.42;61.22;104114.00;4974990;28;124162;-72
2023/02/06 08:28:46;;;;;;;7.50;3.08;;;;;;;6.49;61.31;104103.59;4975758;28;123899;-72
2023/02/06 08:31:17;;;;;;;10.18;2.45;;;;;;;6.53;61.31;104106.34;4971756;28;114568;-71
2023/02/06 08:33:45;;;;;;;9.38;2.67;;;;;;;6.59;61.30;104110.88;4969530;28;112951;-72
2023/02/06 08:36:14;;;;;;;15.50;3.25;;;;;;;6.63;61.25;104102.22;4968695;28;123054;-78
2023/02/06 08:38:42;;;;;;;8.30;2.33;;;;;;;6.69;61.26;104112.88;4976325;28;124234;-78
2023/02/06 08:41:18;;;;;;;8.30;2.80;;;;;;;6.73;61.13;104109.47;4980651;28;114148;-78
2023/02/06 08:43:47;;;;;;;14.13;3.15;;;;;;;6.77;61.53;104108.69;4970910;28;113370;-78
2023/02/06 08:46:16;;;;;;;17.60;2.97;;;;;;;6.83;61.50;104115.84;4945957;28;124405;-78
2023/02/06 08:48:43;;;;;;;12.50;3.25;;;;;;;6.87;61.34;104101.00;4983687;28;122880;-78
2023/02/06 08:51:14;;;;;;;13.10;2.67;;;;;;;6.93;61.29;104095.84;4979525;28;115136;-78
2023/02/06 08:53:41;;;;;;;12.55;2.83;;;;;;;7.00;61.46;104097.78;4960193;28;114231;-77
2023/02/06 08:56:11;;;;;;;12.50;2.90;;;;;;;7.06;61.52;104103.19;4975031;28;124202;-78
2023/02/06 08:58:39;;;;;;;10.90;2.95;;;;;;;7.12;61.29;104105.97;4964254;28;123186;-77
2023/02/06 09:01:08;;;;;;;12.80;3.22;;;;;;;7.19;61.30;104104.34;4977264;28;115274;-78
2023/02/06 09:03:36;;;;;;;7.78;2.80;;;;;;;7.25;61.43;104096.56;4960373;28;111831;-78
2023/02/06 09:06:04;;;;;;;10.77;2.97;;;;;;;7.33;61.74;104096.75;4964448;28;123085;-78
2023/02/06 09:08:38;;;;;;;9.43;2.53;;;;;;;7.40;61.44;104093.34;4983594;28;123996;-77
2023/02/06 09:11:09;;;;;;;8.65;2.83;;;;;;;7.48;61.52;104097.06;4977610;28;114139;-78
2023/02/06 09:13:38;;;;;;;8.48;2.67;;;;;;;7.55;61.81;104104.25;4976962;28;113859;-78
2023/02/06 09:16:06;;;;;;;12.88;2.40;;;;;;;7.63;61.90;104107.03;4980251;28;124734;-78
2023/02/06 09:18:35;;;;;;;10.27;2.65;;;;;;;7.71;61.68;104109.81;4960131;28;123939;-77
2023/02/06 09:21:09;;;;;;;14.00;3.15;;;;;;;7.79;61.64;104108.22;4976876;28;115280;-77
2023/02/06 09:23:39;;;;;;;12.20;2.90;;;;;;;7.87;61.67;104106.59;4977628;28;114258;-77
2023/02/06 09:26:07;;;;;;;11.43;3.00;;;;;;;7.92;61.33;104112.88;4971850;28;123330;-78
2023/02/06 09:28:34;;;;;;;12.40;2.97;;;;;;;7.99;61.17;104117.41;4974719;28;123866;-77
2023/02/06 09:31:08;;;;;;;14.90;3.10;;;;;;;8.03;61.33;104122.75;4976788;28;114224;-78
2023/02/06 09:33:37;;;;;;;8.55;2.40;;;;;;;8.06;61.48;104118.41;4978821;28;113443;-78
2023/02/06 09:36:11;;;;;;;13.90;2.85;;;;;;;8.10;61.56;104109.69;4973802;28;124332;-77
2023/02/06 09:38:41;;;;;;;13.07;3.03;;;;;;;8.16;61.50;104119.47;4976146;28;123713;-77
2023/02/06 09:41:27;;;;;;;12.90;3.80;;;;;;;8.21;61.46;104117.78;4961861;28;115367;-77
2023/02/06 09:44:16;;;;;;;12.75;3.25;;;;;;;8.24;61.55;104123.13;4960181;28;115062;-77
2023/02/06 09:46:55;;;;;;;8.98;3.00;;;;;;;8.26;61.24;104128.44;4977155;28;124202;-78
2023/02/06 09:49:37;;;;;;;14.32;3.00;;;;;;;8.27;61.40;104125.81;4979857;28;123026;-78
2023/02/06 09:52:34;;;;;;;13.85;3.38;;;;;;;8.27;61.58;104128.47;4974150;28;114509;-78
2023/02/06 09:55:37;;;;;;;12.02;3.28;;;;;;;8.28;61.43;104130.22;4983158;28;114262;-78
2023/02/06 09:58:43;;;;;;;16.35;3.63;;;;;;;8.30;61.67;104128.50;4976728;28;123453;-79
2023/02/06 10:01:28;;;;;;;9.85;3.13;;;;;;;8.35;61.66;104132.13;4976292;28;123937;-79
2023/02/06 10:04:39;;;;;;;12.93;3.50;;;;;;;8.37;61.41;104121.59;4969092;28;114221;-78
2023/02/06 10:07:25;;;;;;;12.23;3.10;;;;;;;8.43;61.69;104131.41;4962323;28;113565;-79
2023/02/06 10:10:05;;;;;;;;;;;;;;;8.47;61.53;104130.59;4979980;28;123841;-79
2023/02/06 10:13:18;;;;;;;9.82;2.85;;;;;;;8.51;61.41;104137.69;4981359;28;124014;-79
2023/02/06 10:15:49;;;;;;;11.88;3.05;;;;;;;8.54;61.30;104143.91;4967531;28;114150;-72
2023/02/06 10:18:32;;;;;;;15.18;3.22;;;;;;;8.59;61.59;104136.09;4969236;28;113068;-72
2023/02/06 10:21:35;;;;;;;7.82;2.75;;;;;;;8.65;61.53;104145.88;4976621;28;124042;-69
2023/02/06 10:24:15;;;;;;;13.10;3.22;;;;;;;8.68;61.55;104143.25;4970643;28;123860;-69
2023/02/06 10:26:45;;;;;;;15.73;3.47;;;;;;;8.71;61.47;104146.84;4953980;28;114545;-70
2023/02/06 10:29:27;;;;;;;18.30;3.42;;;;;;;8.76;61.54;104150.44;4978696;28;113766;-70
2023/02/06 10:32:00;;;;;;;11.18;3.50;;;;;;;8.82;61.45;104149.66;4971133;28;123352;-70
2023/02/06 10:34:46;;;;;;;9.68;3.58;;;;;;;8.89;61.44;104150.63;4957020;28;124712;-70
2023/02/06 10:37:28;;;;;;;10.68;3.42;;;;;;;8.94;61.41;104143.66;4970755;28;115534;-70
2023/02/06 10:40:15;;;;;;;18.38;3.63;;;;;;;9.00;61.31;104146.38;4973433;28;115191;-70
2023/02/06 10:42:58;;;;;;;17.33;3.60;;;;;;;9.05;61.66;104136.78;4973296;28;123902;-70
2023/02/06 10:45:41;;;;;;;13.25;3.33;;;;;;;9.13;61.50;104135.13;4970638;28;123943;-70
2023/02/06 10:48:30;;;;;;;14.93;3.58;;;;;;;9.20;61.40;104136.13;4965584;28;114243;-70
2023/02/06 10:51:23;;;;;;;10.90;3.05;;;;;;;9.28;61.71;104131.81;4951757;28;113513;-70
2023/02/06 10:53:56;;;;;;;10.80;3.08;;;;;;;9.37;61.62;104123.09;4946969;28;123606;-70
2023/02/06 10:56:28;;;;;;;14.30;2.97;;;;;;;9.45;61.52;104124.09;4970172;28;124531;-70
2023/02/06 10:58:59;;;;;;;15.93;3.20;;;;;;;9.51;61.30;104134.78;4968859;28;114323;-70
2023/02/06 11:01:33;;;;;;;16.63;3.28;;;;;;;9.57;61.33;104133.97;4970394;28;114112;-71
2023/02/06 11:04:17;;;;;;;15.10;2.58;;;;;;;9.62;61.08;104134.00;4971901;28;123628;-71
2023/02/06 11:06:45;;;;;;;15.27;3.30;;;;;;;9.66;61.00;104138.44;4971718;28;124437;-71
2023/02/06 11:09:14;;;;;;;12.05;2.67;;;;;;;9.72;61.18;104141.19;4972438;28;114544;-71
2023/02/06 11:11:48;;;;;;;11.90;2.90;;;;;;;9.83;61.22;104143.94;4972504;28;113754;-71
2023/02/06 11:14:21;;;;;;;15.45;3.22;;;;;;;9.92;61.22;104134.34;4955474;28;123288;-71
2023/02/06 11:16:52;;;;;;;10.20;2.67;;;;;;;10.04;61.14;104133.59;4969414;28;123850;-72
2023/02/06 11:19:35;;;;;;;11.63;3.05;;;;;;;10.14;61.14;104129.28;4972879;28;114170;-72
2023/02/06 11:22:13;;;;;;;11.60;3.22;;;;;;;10.22;61.17;104122.28;4970215;28;113124;-71
2023/02/06 11:25:04;;;;;;;15.77;3.25;;;;;;;10.26;60.79;104118.78;4964643;28;98600;-71
2023/02/06 11:27:34;;;;;;;11.98;2.20;;;;;;;10.32;61.03;104118.88;4976402;28;124037;-71
2023/02/06 11:30:23;;;;;;;10.18;2.88;;;;;;;10.38;60.98;104118.06;4978131;28;115151;-72
2023/02/06 11:32:57;;;;;;;13.20;2.22;;;;;;;10.48;60.49;104129.63;4925931;28;113868;-71
2023/02/06 11:35:45;;;;;;;9.23;2.55;;;;;;;10.52;60.63;104116.38;4971247;28;123377;-71
2023/02/06 11:38:21;;;;;;;7.57;2.30;;;;;;;10.61;60.54;104120.88;4973351;28;124050;-71
2023/02/06 11:41:15;;;;;;;17.98;3.15;;;;;;;10.68;60.25;104106.81;4970238;28;113632;-71
2023/02/06 11:43:42;;;;;;;10.90;2.60;;;;;;;10.76;60.33;104109.50;4945201;28;114417;-71